createdAt,value
2018-09-08T00:01:44.272Z,11.70
2018-09-08T00:04:12.659Z,11.70
2018-09-08T00:06:41.067Z,11.60
2018-09-08T00:09:09.969Z,11.60
2018-09-08T00:11:38.660Z,11.60
2018-09-08T00:14:07.072Z,11.50
2018-09-08T00:16:40.837Z,11.60
2018-09-08T00:19:14.910Z,11.60
2018-09-08T00:21:49.293Z,11.60
2018-09-08T00:24:22.872Z,11.60
2018-09-08T00:26:50.413Z,11.70
2018-09-08T00:29:22.911Z,11.70
2018-09-08T00:31:51.292Z,11.60
2018-09-08T00:34:19.621Z,11.60
2018-09-08T00:36:47.975Z,11.50
2018-09-08T00:39:16.281Z,11.40
2018-09-08T00:41:44.644Z,11.30
2018-09-08T00:44:12.960Z,11.30
2018-09-08T00:46:41.325Z,11.10
2018-09-08T00:49:09.688Z,11.10
2018-09-08T00:51:37.980Z,11.00
2018-09-08T00:54:06.326Z,11.00
2018-09-08T00:56:35.601Z,11.00
2018-09-08T00:59:04.792Z,10.90
2018-09-08T01:01:34.201Z,11.00
2018-09-08T01:04:03.100Z,11.00
2018-09-08T01:06:31.904Z,11.10
2018-09-08T01:09:00.263Z,11.30
2018-09-08T01:11:28.563Z,11.40
2018-09-08T01:13:56.893Z,11.50
2018-09-08T01:16:25.202Z,11.60
2018-09-08T01:18:53.568Z,11.60
2018-09-08T01:21:21.904Z,11.60
2018-09-08T01:23:50.785Z,11.60
2018-09-08T01:26:19.804Z,11.50
2018-09-08T01:28:48.498Z,11.50
2018-09-08T01:31:16.950Z,11.50
2018-09-08T01:33:46.009Z,11.50
2018-09-08T01:36:14.392Z,11.50
2018-09-08T01:38:42.715Z,11.50
2018-09-08T01:41:11.041Z,11.50
2018-09-08T01:43:39.373Z,11.40
2018-09-08T01:46:07.876Z,11.30
2018-09-08T01:48:36.685Z,11.20
2018-09-08T01:51:05.093Z,11.20
2018-09-08T01:53:33.410Z,11.20
2018-09-08T01:56:01.792Z,11.30
2018-09-08T01:58:30.214Z,11.10
2018-09-08T02:00:58.698Z,11.10
2018-09-08T02:03:27.075Z,11.00
2018-09-08T02:05:55.405Z,11.00
2018-09-08T02:08:23.768Z,10.80
2018-09-08T02:10:52.080Z,10.60
2018-09-08T02:13:20.397Z,10.40
2018-09-08T02:15:48.736Z,10.50
2018-09-08T02:18:17.064Z,10.50
2018-09-08T02:20:45.392Z,10.60
2018-09-08T02:23:13.738Z,10.60
2018-09-08T02:25:42.058Z,10.60
2018-09-08T02:28:10.373Z,10.50
2018-09-08T02:30:38.717Z,10.40
2018-09-08T02:33:07.089Z,10.40
2018-09-08T02:35:35.420Z,10.40
2018-09-08T02:38:03.836Z,10.30
2018-09-08T02:40:32.892Z,10.30
2018-09-08T02:43:01.200Z,10.40
2018-09-08T02:45:29.528Z,10.40
2018-09-08T02:47:57.857Z,10.30
2018-09-08T02:50:29.251Z,10.40
2018-09-08T02:52:56.505Z,10.30
2018-09-08T02:55:23.841Z,10.30
2018-09-08T02:57:51.072Z,10.30
2018-09-08T03:00:18.321Z,10.30
2018-09-08T03:02:45.578Z,10.20
2018-09-08T03:05:12.820Z,10.20
2018-09-08T03:07:40.072Z,10.20
2018-09-08T03:10:07.308Z,10.20
2018-09-08T03:12:34.581Z,10.20
2018-09-08T03:15:01.853Z,10.20
2018-09-08T03:17:29.113Z,10.20
2018-09-08T03:19:56.352Z,10.20
2018-09-08T03:22:23.684Z,10.30
2018-09-08T03:24:51.081Z,10.20
2018-09-08T03:27:18.461Z,10.20
2018-09-08T03:29:45.745Z,10.20
2018-09-08T03:32:13.305Z,10.20
2018-09-08T03:34:40.568Z,10.10
2018-09-08T03:37:07.849Z,10.10
2018-09-08T03:39:35.106Z,10.10
2018-09-08T03:42:02.403Z,10.10
2018-09-08T03:44:29.648Z,10.00
2018-09-08T03:46:56.909Z,9.60
2018-09-08T03:49:24.147Z,9.30
2018-09-08T03:51:51.438Z,9.20
2018-09-08T03:54:18.733Z,9.20
2018-09-08T03:56:45.984Z,9.30
2018-09-08T03:59:13.221Z,9.30
2018-09-08T04:01:40.468Z,9.30
2018-09-08T04:04:08.789Z,9.20
2018-09-08T04:06:37.110Z,9.20
2018-09-08T04:09:08.321Z,9.20
2018-09-08T04:11:36.693Z,9.30
2018-09-08T04:14:05.073Z,9.40
2018-09-08T04:16:33.454Z,9.40
2018-09-08T04:19:02.572Z,9.40
2018-09-08T04:21:31.373Z,9.40
2018-09-08T04:24:00.094Z,9.40
2018-09-08T04:26:28.649Z,9.50
2018-09-08T04:28:56.955Z,9.60
2018-09-08T04:31:25.269Z,9.50
2018-09-08T04:33:53.599Z,9.60
2018-09-08T04:36:21.924Z,9.60
2018-09-08T04:38:50.914Z,9.60
2018-09-08T04:41:19.216Z,9.70
2018-09-08T04:43:47.532Z,9.60
2018-09-08T04:46:15.869Z,9.60
2018-09-08T04:48:45.187Z,9.70
2018-09-08T04:51:13.472Z,9.70
2018-09-08T04:53:41.792Z,9.70
2018-09-08T04:56:10.126Z,9.80
2018-09-08T04:58:38.469Z,9.80
2018-09-08T05:01:06.884Z,9.70
2018-09-08T05:03:35.813Z,9.60
2018-09-08T05:06:04.756Z,9.60
2018-09-08T05:08:33.074Z,9.60
2018-09-08T05:11:01.429Z,9.50
2018-09-08T05:13:30.808Z,9.40
2018-09-08T05:15:59.323Z,9.50
2018-09-08T05:18:27.683Z,9.60
2018-09-08T05:20:56.066Z,9.70
2018-09-08T05:23:24.519Z,9.70
2018-09-08T05:25:52.984Z,9.80
2018-09-08T05:28:21.474Z,9.80
2018-09-08T05:30:49.801Z,9.90
2018-09-08T05:33:18.404Z,10.00
2018-09-08T05:35:46.738Z,10.10
2018-09-08T05:38:15.593Z,10.30
2018-09-08T05:40:43.935Z,10.30
2018-09-08T05:43:12.693Z,10.30
2018-09-08T05:45:41.053Z,10.40
2018-09-08T05:48:09.370Z,10.40
2018-09-08T05:50:37.787Z,10.40
2018-09-08T05:53:06.905Z,10.40
2018-09-08T05:55:35.223Z,10.50
2018-09-08T05:58:03.576Z,10.50
2018-09-08T06:00:31.948Z,10.60
2018-09-08T06:03:00.272Z,10.70
2018-09-08T06:05:29.052Z,10.70
2018-09-08T06:07:57.420Z,10.70
2018-09-08T06:10:25.808Z,10.80
2018-09-08T06:12:54.082Z,10.90
2018-09-08T06:15:22.430Z,10.90
2018-09-08T06:17:50.757Z,11.00
2018-09-08T06:20:21.419Z,11.00
2018-09-08T06:22:50.441Z,11.20
2018-09-08T06:25:29.439Z,11.30
2018-09-08T06:28:00.492Z,11.50
2018-09-08T06:30:29.094Z,11.60
2018-09-08T06:32:57.409Z,11.70
2018-09-08T06:35:26.390Z,11.70
2018-09-08T06:38:00.228Z,11.80
2018-09-08T06:40:29.573Z,12.00
2018-09-08T06:42:59.898Z,12.10
2018-09-08T06:45:45.982Z,12.20
2018-09-08T06:48:14.504Z,12.30
2018-09-08T06:50:43.758Z,12.50
2018-09-08T06:53:12.212Z,12.60
2018-09-08T06:55:40.724Z,12.70
2018-09-08T06:58:09.029Z,12.90
2018-09-08T07:00:38.349Z,13.00
2018-09-08T07:03:06.905Z,13.10
2018-09-08T07:05:35.549Z,13.20
2018-09-08T07:08:03.869Z,13.30
2018-09-08T07:10:32.669Z,13.40
2018-09-08T07:13:05.137Z,13.50
2018-09-08T07:15:33.493Z,13.70
2018-09-08T07:18:08.193Z,13.80
2018-09-08T07:20:37.016Z,13.90
2018-09-08T07:23:05.748Z,14.00
2018-09-08T07:25:40.987Z,14.10
2018-09-08T07:28:09.342Z,14.10
2018-09-08T07:30:37.644Z,14.20
2018-09-08T07:33:06.188Z,14.30
2018-09-08T07:35:34.513Z,14.40
2018-09-08T07:38:02.875Z,14.50
2018-09-08T07:40:31.194Z,14.70
2018-09-08T07:42:59.542Z,14.90
2018-09-08T07:45:27.828Z,14.90
2018-09-08T07:47:56.153Z,15.00
2018-09-08T07:50:26.514Z,15.10
2018-09-08T07:52:54.904Z,14.90
2018-09-08T07:55:23.208Z,15.00
2018-09-08T07:57:51.529Z,15.00
2018-09-08T08:00:19.842Z,15.00
2018-09-08T08:02:48.352Z,15.00
2018-09-08T08:05:16.787Z,15.00
2018-09-08T08:07:45.110Z,15.10
2018-09-08T08:10:13.527Z,15.20
2018-09-08T08:12:46.608Z,15.30
2018-09-08T08:15:23.549Z,15.40
2018-09-08T08:17:56.737Z,15.50
2018-09-08T08:20:33.111Z,15.60
2018-09-08T08:23:05.994Z,15.70
2018-09-08T08:25:37.903Z,15.80
2018-09-08T08:28:11.279Z,15.80
2018-09-08T08:30:43.026Z,15.90
2018-09-08T08:36:01.598Z,15.90
2018-09-08T08:38:36.159Z,16.00
2018-09-08T08:41:06.055Z,16.10
2018-09-08T08:43:37.487Z,16.10
2018-09-08T08:46:13.215Z,16.10
2018-09-08T08:48:44.380Z,16.00
2018-09-08T08:51:27.186Z,16.20
2018-09-08T08:54:09.372Z,16.20
2018-09-08T08:56:42.911Z,16.40
2018-09-08T08:59:15.899Z,16.60
2018-09-08T09:01:44.272Z,16.70
2018-09-08T09:04:12.790Z,16.80
2018-09-08T09:06:41.096Z,16.90
2018-09-08T09:09:14.780Z,17.00
2018-09-08T09:11:43.696Z,17.20
2018-09-08T09:14:12.501Z,17.20
2018-09-08T09:16:41.269Z,17.10
2018-09-08T09:19:37.555Z,17.00
2018-09-08T09:22:19.428Z,17.00
2018-09-08T09:25:10.437Z,17.00
2018-09-08T09:27:43.423Z,17.00
2018-09-08T09:30:12.913Z,16.80
2018-09-08T09:32:41.265Z,16.90
2018-09-08T09:35:13.247Z,16.90
2018-09-08T09:37:41.874Z,17.00
2018-09-08T09:40:11.184Z,17.20
2018-09-08T09:42:39.583Z,17.10
2018-09-08T09:45:08.623Z,17.30
2018-09-08T09:47:36.969Z,17.20
2018-09-08T09:50:05.960Z,17.40
2018-09-08T09:52:34.419Z,17.40
2018-09-08T09:55:02.829Z,17.60
2018-09-08T09:57:34.749Z,17.70
2018-09-08T10:00:07.742Z,17.80
2018-09-08T10:03:12.699Z,17.60
2018-09-08T10:05:43.998Z,18.00
2018-09-08T10:08:17.786Z,18.20
2018-09-08T10:10:48.456Z,18.40
2018-09-08T10:13:22.334Z,18.70
2018-09-08T10:15:52.314Z,19.20
2018-09-08T10:18:21.158Z,19.40
2018-09-08T10:20:49.833Z,19.40
2018-09-08T10:23:18.389Z,19.00
2018-09-08T10:25:46.940Z,19.00
2018-09-08T10:28:15.510Z,19.20
2018-09-08T10:30:44.200Z,18.90
2018-09-08T10:33:12.772Z,18.50
2018-09-08T10:35:42.976Z,18.40
2018-09-08T10:38:11.469Z,18.20
2018-09-08T10:40:40.088Z,18.80
2018-09-08T10:43:08.528Z,19.30
2018-09-08T10:45:36.997Z,19.30
2018-09-08T10:48:05.545Z,19.30
2018-09-08T10:50:34.068Z,19.10
2018-09-08T10:53:02.568Z,19.40
2018-09-08T10:55:31.319Z,20.20
2018-09-08T10:57:59.792Z,20.40
2018-09-08T11:00:28.444Z,20.40
2018-09-08T11:02:57.019Z,20.60
2018-09-08T11:05:25.412Z,20.90
2018-09-08T11:07:53.904Z,20.80
2018-09-08T11:10:23.506Z,21.50
2018-09-08T11:12:51.814Z,21.20
2018-09-08T11:15:20.133Z,21.40
2018-09-08T11:17:49.010Z,21.40
2018-09-08T11:20:17.325Z,20.30
2018-09-08T11:22:45.724Z,19.80
2018-09-08T11:25:14.084Z,20.50
2018-09-08T11:27:42.424Z,20.60
2018-09-08T11:30:10.762Z,20.80
2018-09-08T11:32:39.079Z,20.90
2018-09-08T11:35:07.530Z,21.50
2018-09-08T11:37:36.718Z,21.60
2018-09-08T11:40:05.152Z,21.60
2018-09-08T11:42:33.454Z,21.60
2018-09-08T11:45:01.774Z,22.10
2018-09-08T11:47:30.081Z,22.10
2018-09-08T11:49:58.388Z,21.90
2018-09-08T11:52:26.680Z,21.60
2018-09-08T11:54:54.993Z,21.60
2018-09-08T11:57:23.301Z,22.00
2018-09-08T11:59:51.657Z,21.70
2018-09-08T12:02:20.669Z,21.20
2018-09-08T12:04:48.997Z,22.10
2018-09-08T12:07:17.299Z,22.00
2018-09-08T12:09:45.619Z,22.60
2018-09-08T12:12:13.933Z,22.40
2018-09-08T12:14:42.341Z,22.50
2018-09-08T12:17:11.356Z,23.30
2018-09-08T12:19:39.660Z,23.80
2018-09-08T12:22:08.030Z,23.40
2018-09-08T12:24:36.284Z,23.70
2018-09-08T12:27:04.676Z,23.20
2018-09-08T12:29:33.004Z,24.60
2018-09-08T12:32:01.377Z,23.90
2018-09-08T12:34:29.721Z,23.60
2018-09-08T12:36:58.061Z,23.40
2018-09-08T12:39:26.370Z,23.10
2018-09-08T12:41:54.716Z,23.30
2018-09-08T12:44:23.016Z,24.00
2018-09-08T12:46:51.332Z,23.90
2018-09-08T12:49:19.657Z,24.30
2018-09-08T12:51:48.026Z,23.50
2018-09-08T12:54:16.311Z,24.00
2018-09-08T12:56:44.619Z,24.50
2018-09-08T12:59:13.009Z,24.40
2018-09-08T13:01:41.289Z,24.10
2018-09-08T13:04:09.637Z,23.90
2018-09-08T13:06:37.932Z,24.00
2018-09-08T13:09:06.797Z,24.30
2018-09-08T13:11:35.097Z,23.70
2018-09-08T13:14:03.442Z,23.30
2018-09-08T13:16:32.180Z,22.80
2018-09-08T13:19:00.509Z,23.20
2018-09-08T13:21:28.880Z,24.10
2018-09-08T13:23:57.237Z,25.50
2018-09-08T13:26:25.498Z,24.90
2018-09-08T13:28:53.825Z,24.00
2018-09-08T13:31:22.206Z,24.90
2018-09-08T13:33:50.613Z,26.40
2018-09-08T13:36:18.901Z,26.60
2018-09-08T13:38:47.249Z,26.10
2018-09-08T13:41:15.562Z,24.90
2018-09-08T13:43:44.020Z,24.20
2018-09-08T13:46:12.332Z,24.20
2018-09-08T13:48:40.645Z,24.90
2018-09-08T13:51:09.042Z,24.80
2018-09-08T13:53:37.337Z,25.80
2018-09-08T13:56:06.645Z,25.80
2018-09-08T13:58:35.057Z,25.10
2018-09-08T14:01:03.371Z,24.30
2018-09-08T14:03:31.684Z,25.10
2018-09-08T14:06:00.363Z,26.30
2018-09-08T14:08:28.673Z,26.10
2018-09-08T14:10:57.005Z,24.90
2018-09-08T14:13:25.331Z,24.50
2018-09-08T14:15:53.810Z,24.70
2018-09-08T14:18:22.120Z,24.90
2018-09-08T14:20:50.469Z,24.90
2018-09-08T14:23:18.878Z,25.30
2018-09-08T14:25:47.200Z,26.00
2018-09-08T14:28:15.529Z,25.40
2018-09-08T14:30:43.862Z,26.30
2018-09-08T14:33:12.216Z,25.10
2018-09-08T14:35:40.561Z,24.80
2018-09-08T14:38:09.047Z,26.10
2018-09-08T14:40:38.648Z,25.70
2018-09-08T14:43:07.248Z,27.20
2018-09-08T14:45:35.824Z,26.70
2018-09-08T14:48:04.341Z,26.10
2018-09-08T14:50:33.237Z,26.50
2018-09-08T14:53:01.832Z,24.60
2018-09-08T14:55:30.709Z,23.70
2018-09-08T14:57:59.910Z,23.70
2018-09-08T15:00:28.534Z,23.30
2018-09-08T15:02:58.029Z,23.30
2018-09-08T15:05:26.733Z,23.50
2018-09-08T15:07:55.354Z,24.10
2018-09-08T15:10:23.868Z,24.90
2018-09-08T15:12:52.340Z,24.10
2018-09-08T15:15:21.190Z,23.90
2018-09-08T15:17:49.627Z,23.60
2018-09-08T15:20:18.089Z,23.80
2018-09-08T15:22:46.592Z,23.50
2018-09-08T15:25:15.270Z,22.80
2018-09-08T15:27:43.802Z,22.80
2018-09-08T15:30:12.258Z,22.70
2018-09-08T15:32:40.846Z,22.40
2018-09-08T15:35:09.330Z,22.10
2018-09-08T15:37:37.821Z,22.00
2018-09-08T15:40:06.475Z,22.20
2018-09-08T15:42:35.233Z,22.00
2018-09-08T15:45:04.857Z,22.10
2018-09-08T15:47:35.659Z,22.60
2018-09-08T15:50:04.459Z,22.30
2018-09-08T15:52:32.877Z,22.90
2018-09-08T15:55:01.284Z,23.00
2018-09-08T15:57:29.802Z,22.80
2018-09-08T15:59:58.331Z,22.50
2018-09-08T16:02:26.771Z,22.10
2018-09-08T16:04:55.255Z,21.70
2018-09-08T16:07:23.626Z,21.70
2018-09-08T16:09:52.631Z,21.80
2018-09-08T16:12:21.142Z,21.70
2018-09-08T16:14:49.572Z,21.50
2018-09-08T16:17:17.985Z,21.30
2018-09-08T16:19:46.523Z,21.00
2018-09-08T16:22:15.210Z,21.00
2018-09-08T16:24:43.717Z,21.10
2018-09-08T16:27:12.280Z,20.90
2018-09-08T16:29:40.822Z,20.80
2018-09-08T16:32:12.223Z,20.60
2018-09-08T16:34:46.422Z,20.60
2018-09-08T16:37:19.310Z,20.50
2018-09-08T16:39:53.009Z,20.60
2018-09-08T16:42:25.623Z,20.80
2018-09-08T16:44:54.504Z,20.90
2018-09-08T16:47:23.909Z,20.80
2018-09-08T16:49:53.056Z,20.60
2018-09-08T16:52:21.631Z,20.70
2018-09-08T16:54:50.018Z,20.70
2018-09-08T16:57:18.512Z,20.60
2018-09-08T16:59:46.959Z,20.40
2018-09-08T17:02:15.402Z,20.30
2018-09-08T17:04:44.034Z,19.90
2018-09-08T17:07:12.770Z,19.60
2018-09-08T17:09:41.321Z,19.40
2018-09-08T17:12:10.123Z,19.30
2018-09-08T17:14:39.326Z,19.40
2018-09-08T17:17:07.738Z,19.30
2018-09-08T17:19:36.255Z,19.20
2018-09-08T17:22:04.706Z,19.10
2018-09-08T17:24:33.350Z,19.10
2018-09-08T17:27:01.876Z,19.10
2018-09-08T17:29:30.442Z,19.00
2018-09-08T17:31:58.962Z,19.00
2018-09-08T17:34:27.393Z,18.90
2018-09-08T17:36:56.204Z,18.70
2018-09-08T17:39:25.705Z,18.70
2018-09-08T17:41:54.477Z,18.70
2018-09-08T17:44:23.002Z,18.70
2018-09-08T17:46:51.489Z,18.80
2018-09-08T17:49:19.950Z,18.80
2018-09-08T17:51:48.503Z,18.80
2018-09-08T17:54:16.913Z,18.70
2018-09-08T17:56:45.401Z,18.60
2018-09-08T17:59:16.044Z,18.50
2018-09-08T18:01:48.297Z,18.40
2018-09-08T18:04:20.071Z,18.30
2018-09-08T18:06:53.578Z,18.20
2018-09-08T18:09:29.083Z,18.30
2018-09-08T18:12:05.721Z,18.10
2018-09-08T18:14:41.221Z,18.10
2018-09-08T18:17:14.341Z,18.10
2018-09-08T18:19:47.387Z,18.10
2018-09-08T18:22:19.350Z,18.00
2018-09-08T18:24:52.619Z,17.90
2018-09-08T18:27:23.305Z,17.80
2018-09-08T18:29:53.987Z,17.70
2018-09-08T18:32:26.362Z,17.60
2018-09-08T18:34:56.238Z,17.70
2018-09-08T18:37:30.799Z,17.70
2018-09-08T18:40:02.992Z,17.70
2018-09-08T18:42:34.230Z,17.70
2018-09-08T18:45:04.541Z,17.50
2018-09-08T18:47:41.230Z,17.40
2018-09-08T18:50:14.491Z,17.30
2018-09-08T18:52:49.939Z,17.50
2018-09-08T18:55:21.709Z,17.50
2018-09-08T18:57:58.995Z,17.60
2018-09-08T19:00:30.545Z,17.60
2018-09-08T19:03:08.152Z,17.60
2018-09-08T19:05:38.909Z,17.50
2018-09-08T19:08:13.809Z,17.50
2018-09-08T19:10:45.703Z,17.50
2018-09-08T19:13:17.073Z,17.40
2018-09-08T19:15:50.867Z,17.30
2018-09-08T19:18:21.635Z,17.30
2018-09-08T19:20:50.017Z,17.30
2018-09-08T19:23:18.384Z,17.20
2018-09-08T19:25:46.749Z,17.20
2018-09-08T19:28:15.025Z,17.10
2018-09-08T19:30:43.369Z,17.10
2018-09-08T19:33:11.686Z,17.00
2018-09-08T19:35:42.285Z,16.90
2018-09-08T19:38:12.251Z,17.00
2018-09-08T19:40:46.502Z,16.90
2018-09-08T19:43:14.899Z,16.90
2018-09-08T19:45:43.237Z,16.80
2018-09-08T19:48:16.837Z,16.80
2018-09-08T19:50:45.201Z,16.80
2018-09-08T19:54:19.944Z,16.70
2018-09-08T19:56:53.624Z,16.60
2018-09-08T19:59:21.929Z,16.60
2018-09-08T20:01:50.297Z,16.70
2018-09-08T20:04:18.634Z,16.60
2018-09-08T20:06:46.928Z,16.40
2018-09-08T20:09:15.366Z,16.30
2018-09-08T20:11:43.661Z,16.40
2018-09-08T20:14:12.004Z,16.40
2018-09-08T20:16:40.346Z,16.50
2018-09-08T20:19:08.653Z,16.40
2018-09-08T20:21:37.058Z,16.40
2018-09-08T20:24:05.428Z,16.40
2018-09-08T20:26:33.847Z,16.50
2018-09-08T20:29:09.292Z,16.60
2018-09-08T20:31:38.935Z,16.40
2018-09-08T20:34:15.849Z,16.40
2018-09-08T20:36:47.538Z,16.40
2018-09-08T20:41:58.857Z,16.30
2018-09-08T20:44:27.654Z,16.30
2018-09-08T20:46:55.993Z,16.30
2018-09-08T20:49:29.456Z,16.40
2018-09-08T20:51:57.833Z,16.30
2018-09-08T20:54:28.428Z,15.90
2018-09-08T20:56:57.013Z,15.80
2018-09-08T20:59:25.331Z,15.80
2018-09-08T21:01:54.022Z,15.90
2018-09-08T21:04:23.289Z,15.90
2018-09-08T21:06:51.588Z,16.00
2018-09-08T21:09:25.004Z,16.10
2018-09-08T21:11:54.199Z,16.00
2018-09-08T21:14:22.957Z,16.00
2018-09-08T21:16:51.627Z,16.00
2018-09-08T21:19:20.225Z,15.90
2018-09-08T21:21:48.564Z,15.90
2018-09-08T21:24:17.080Z,15.90
2018-09-08T21:26:45.454Z,15.90
2018-09-08T21:29:18.039Z,15.90
2018-09-08T21:31:53.561Z,15.80
2018-09-08T21:34:22.187Z,15.90
2018-09-08T21:36:51.722Z,15.80
2018-09-08T21:39:21.169Z,15.80
2018-09-08T21:41:50.461Z,15.90
2018-09-08T21:44:19.419Z,15.90
2018-09-08T21:46:48.003Z,15.80
2018-09-08T21:49:27.176Z,15.80
2018-09-08T21:51:55.524Z,15.80
2018-09-08T21:54:24.049Z,15.80
2018-09-08T21:56:53.507Z,16.00
2018-09-08T21:59:21.854Z,16.00
2018-09-08T22:01:50.643Z,16.00
2018-09-08T22:04:19.162Z,15.90
2018-09-08T22:06:47.879Z,15.90
2018-09-08T22:09:17.193Z,15.90
2018-09-08T22:11:45.804Z,15.70
2018-09-08T22:14:14.141Z,15.80
2018-09-08T22:16:43.459Z,15.80
2018-09-08T22:19:12.146Z,15.80
2018-09-08T22:21:40.651Z,15.80
2018-09-08T22:24:09.128Z,15.70
2018-09-08T22:26:37.609Z,15.70
2018-09-08T22:29:06.035Z,15.70
2018-09-08T22:31:34.474Z,15.70
2018-09-08T22:34:02.928Z,15.70
2018-09-08T22:36:51.550Z,15.70
2018-09-08T22:39:20.032Z,15.80
2018-09-08T22:41:48.459Z,15.80
2018-09-08T22:44:16.828Z,15.80
2018-09-08T22:46:45.349Z,15.80
2018-09-08T22:49:13.748Z,15.80
2018-09-08T22:51:42.125Z,15.70
2018-09-08T22:54:10.877Z,15.80
2018-09-08T22:56:39.453Z,15.70
2018-09-08T22:59:07.832Z,15.70
2018-09-08T23:01:36.188Z,15.60
2018-09-08T23:04:04.669Z,15.60
2018-09-08T23:06:33.222Z,15.60
2018-09-08T23:09:01.604Z,15.70
2018-09-08T23:11:29.941Z,15.70
2018-09-08T23:13:58.498Z,15.70
2018-09-08T23:16:27.104Z,15.70
2018-09-08T23:18:55.904Z,15.60
2018-09-08T23:21:24.235Z,15.70
2018-09-08T23:23:53.565Z,15.70
2018-09-08T23:26:21.979Z,15.50
2018-09-08T23:28:50.320Z,15.50
2018-09-08T23:31:18.820Z,15.60
2018-09-08T23:33:47.333Z,15.60
2018-09-08T23:36:15.672Z,15.60
2018-09-08T23:38:44.038Z,15.50
2018-09-08T23:41:12.610Z,15.40
2018-09-08T23:43:41.024Z,15.40
2018-09-08T23:46:09.733Z,15.50
2018-09-08T23:48:38.397Z,15.50
2018-09-08T23:51:09.328Z,15.30
2018-09-08T23:53:59.653Z,15.30
2018-09-08T23:56:28.080Z,15.20
2018-09-08T23:58:56.396Z,15.10
